KAFF/AFF METAR and TAF weather

Enter ICAO airport designator
Station Type Date Time Source
KAFF METAR 2019/02/23 02:23 UTC NOAA

KAFF 230223Z AUTO 34011KT 1 5/8SM BLSN BR FEW002 M04/M06 A2971 RMK AO2 SLP105


Station Type Date Time Source
KAFF Decoded METAR 2019/02/23 02:23 UTC NOAA

Air Force Academy, CO, United States (KAFF) 38-58N 104-49W 1999M
Feb 22, 2019 - 09:23 PM EST / 2019.02.23 0223 UTC
Wind: from the NNW (340 degrees) at 13 MPH (11 KT):0
Visibility: 1 5/8 mile(s):0
Sky conditions: mostly clear
Weather: blowing snow; mist
Temperature: 24 F (-4 C)
Windchill: 12 F (-11 C):1
Dew Point: 21 F (-6 C)
Relative Humidity: 85%
Pressure (altimeter): 29.71 in. Hg (1006 hPa)
ob: KAFF 230223Z AUTO 34011KT 1 5/8SM BLSN BR FEW002 M04/M06 A2971 RMK AO2 SLP105
cycle: 2

Station Type Date Time Source
KAFF TAF 2019/02/22 23:39 UTC NOAA

TAF TAF
AMD KAFF 222336Z 2223/2318 36012G18KT 6000 -SN BKN006 OVC010 620069 QNH2966INS
BECMG 2308/2309 01015G25KT 6000 -SN BKN010 OVC020 620109 QNH2972INS
BECMG 2313/2314 33009KT 9999 NSW BKN080 620806 QNH2979INS TX00/2300Z TNM09/2312Z LAST NO
AMDS AFT 2223 NEXT 2512


Example: see airport list